Time;durP1;ratioP1;P1;durP2;ratioP2;P2;SDS_P1;SDS_P2;PMS_P1;PMS_P2;Temp;Humidity;BMP_temperature;BMP_pressure;BME280_temperature;BME280_humidity;BME280_pressure;Samples;Min_cycle;Max_cycle;Signal;HPM_P1;HPM_P2
2022/07/06 00:08:33;;;;;;;4.03;2.60;;;;;;;24.60;49.00;100157.94;20178717;28;100362;-75
2022/07/06 00:18:34;;;;;;;3.90;2.47;;;;;;;24.61;48.71;100151.66;20175314;28;99936;-76
2022/07/06 00:28:35;;;;;;;2.65;2.45;;;;;;;24.60;48.91;100163.22;20172881;28;97533;-76
2022/07/06 00:38:36;;;;;;;2.67;2.40;;;;;;;24.60;49.00;100168.53;20178352;28;97989;-76
2022/07/06 00:48:37;;;;;;;2.80;2.30;;;;;;;24.52;48.75;100159.66;20168124;28;101067;-77
2022/07/06 00:58:37;;;;;;;3.83;2.45;;;;;;;24.50;48.65;100156.31;20168310;28;98001;-77
2022/07/06 01:08:38;;;;;;;4.90;2.30;;;;;;;24.51;48.60;100142.09;20166616;28;99727;-76
2022/07/06 01:18:40;;;;;;;6.83;2.13;;;;;;;24.45;48.82;100154.94;20174458;28;101640;-76
2022/07/06 01:28:41;;;;;;;3.05;2.30;;;;;;;24.48;48.51;100145.06;20178158;28;103281;-75
2022/07/06 01:38:58;;;;;;;2.47;2.10;;;;;;;24.42;48.52;100146.47;20178403;28;98601;-75
2022/07/06 01:48:59;;;;;;;3.90;2.20;;;;;;;24.33;48.49;100156.13;20182047;28;97216;-78
2022/07/06 01:59:00;;;;;;;4.57;2.47;;;;;;;24.33;48.48;100150.81;20177956;28;98165;-75
2022/07/06 02:09:00;;;;;;;2.45;2.25;;;;;;;24.25;49.07;100158.66;20179064;28;100795;-75
2022/07/06 02:19:01;;;;;;;3.05;2.40;;;;;;;24.26;48.46;100171.72;20183158;28;99085;-75
2022/07/06 02:29:02;;;;;;;2.88;2.35;;;;;;;24.18;48.57;100174.28;20176787;28;102266;-75
2022/07/06 02:39:02;;;;;;;3.40;2.33;;;;;;;24.19;48.47;100180.41;20172477;28;98118;-74
2022/07/06 02:49:03;;;;;;;4.57;2.50;;;;;;;24.18;48.26;100186.66;20177691;28;97069;-75
2022/07/06 02:59:04;;;;;;;2.70;2.50;;;;;;;24.17;48.28;100203.50;20172785;28;98070;-74
2022/07/06 03:09:04;;;;;;;4.93;2.85;;;;;;;24.17;48.52;100211.44;20181112;28;102493;-75
2022/07/06 03:19:05;;;;;;;3.00;2.70;;;;;;;24.14;48.82;100221.34;20186298;28;98747;-74
2022/07/06 03:29:05;;;;;;;5.82;3.03;;;;;;;24.12;48.69;100233.88;20177273;28;99000;-75
2022/07/06 03:39:06;;;;;;;3.90;2.90;;;;;;;24.11;48.89;100245.44;20168244;28;99664;-74
2022/07/06 03:49:07;;;;;;;4.73;3.00;;;;;;;24.10;48.78;100240.28;20173430;28;97439;-74
2022/07/06 03:59:07;;;;;;;3.72;3.40;;;;;;;24.07;48.42;100238.75;20170577;28;97817;-74
2022/07/06 04:09:09;;;;;;;4.88;3.25;;;;;;;24.03;48.68;100239.19;20176617;28;102171;-75
2022/07/06 04:19:09;;;;;;;6.13;2.83;;;;;;;24.03;48.75;100233.91;20182550;28;97783;-75
2022/07/06 04:29:10;;;;;;;7.05;3.00;;;;;;;24.03;48.36;100231.25;20193680;28;99868;-75
2022/07/06 04:39:10;;;;;;;3.95;2.83;;;;;;;24.02;48.60;100237.50;20178658;28;98001;-75
2022/07/06 04:49:11;;;;;;;8.45;3.28;;;;;;;24.04;48.67;100222.34;20187866;28;98507;-76
2022/07/06 04:59:11;;;;;;;5.13;2.90;;;;;;;24.00;48.22;100240.31;20185798;28;101088;-74
2022/07/06 05:09:13;;;;;;;4.28;3.03;;;;;;;23.26;50.21;100238.97;20185674;28;100602;-74
2022/07/06 05:19:13;;;;;;;8.30;3.38;;;;;;;23.20;50.87;100236.88;20205733;28;98045;-75
2022/07/06 05:29:14;;;;;;;3.20;2.90;;;;;;;23.17;50.14;100256.50;20228075;28;96959;-75
2022/07/06 05:39:19;;;;;;;5.25;2.80;;;;;;;23.47;50.03;100262.66;20215399;28;97271;-75
2022/07/06 05:59:39;;;;;;;3.45;2.90;;;;;;;23.44;49.91;100276.97;20202680;28;101088;-75
2022/07/06 06:09:39;;;;;;;3.20;2.92;;;;;;;23.53;49.78;100282.41;20197656;28;99317;-75
2022/07/06 06:19:40;;;;;;;4.80;2.67;;;;;;;23.60;50.11;100291.47;20196977;28;101020;-75
2022/07/06 06:29:41;;;;;;;4.07;2.80;;;;;;;23.78;49.60;100291.63;20206035;28;97707;-77
2022/07/06 06:39:42;;;;;;;3.70;3.13;;;;;;;23.81;49.46;100296.63;20205661;28;98739;-77
2022/07/06 06:49:42;;;;;;;4.45;3.90;;;;;;;23.80;49.47;100305.53;20189122;28;97423;-74
2022/07/06 06:59:43;;;;;;;5.32;3.38;;;;;;;23.78;49.89;100310.16;20204337;28;100573;-76
2022/07/06 07:09:43;;;;;;;4.93;3.42;;;;;;;24.00;49.51;100318.78;20179158;28;97959;-75
2022/07/06 07:19:44;;;;;;;4.03;3.63;;;;;;;24.08;49.07;100326.88;20187014;28;97351;-75
2022/07/06 07:29:44;;;;;;;5.60;4.07;;;;;;;24.22;nan;100326.47;20183467;28;100255;-78
2022/07/06 07:39:45;;;;;;;3.97;3.65;;;;;;;24.09;nan;100332.03;20188348;28;99019;-79
2022/07/06 07:49:47;;;;;;;6.63;3.45;;;;;;;24.13;nan;100336.06;20188414;28;98671;-79
2022/07/06 07:59:48;;;;;;;6.55;3.53;;;;;;;24.14;nan;100328.97;20190175;28;100395;-80
2022/07/06 08:09:48;;;;;;;2.83;2.53;;;;;;;24.30;nan;100341.63;20221973;28;99126;-82
2022/07/06 08:19:49;;;;;;;3.83;3.40;;;;;;;24.50;nan;100339.78;20210736;28;98657;-83
2022/07/06 08:29:49;;;;;;;5.75;3.10;;;;;;;24.70;nan;100345.91;20206757;28;98328;-82
2022/07/06 08:39:50;;;;;;;3.40;2.30;;;;;;;24.85;nan;100351.59;20204808;28;100474;-82
2022/07/06 08:49:50;;;;;;;4.28;2.70;;;;;;;24.97;nan;100359.38;20207510;28;98026;-82
2022/07/06 08:59:51;;;;;;;3.03;2.70;;;;;;;25.19;nan;100347.56;20210885;28;100600;-81
2022/07/06 09:09:52;;;;;;;3.20;2.20;;;;;;;25.25;nan;100344.31;20223625;28;97090;-81
2022/07/06 09:19:54;;;;;;;4.17;2.67;;;;;;;25.35;nan;100342.47;20225189;28;100677;-85
2022/07/06 09:29:59;;;;;;;4.30;2.50;;;;;;;25.52;nan;100340.03;20211715;28;100320;-84
2022/07/06 09:39:59;;;;;;;4.05;2.40;;;;;;;25.59;nan;100325.19;20192540;28;102012;-81
2022/07/06 09:50:00;;;;;;;2.83;2.45;;;;;;;25.77;nan;100346.44;20226062;28;98240;-81
2022/07/06 10:00:00;;;;;;;6.07;3.00;;;;;;;25.87;nan;100336.56;20218084;28;99060;-81
2022/07/06 10:10:02;;;;;;;5.88;3.00;;;;;;;26.03;nan;100341.19;20232035;28;100597;-83
2022/07/06 10:20:04;;;;;;;5.00;2.95;;;;;;;26.23;nan;100330.44;20240136;28;99432;-81
2022/07/06 10:30:05;;;;;;;4.63;3.00;;;;;;;26.32;nan;100324.22;20242933;28;97625;-83
2022/07/06 10:50:34;;;;;;;6.17;2.93;;;;;;;26.77;nan;100338.31;20236311;28;97218;-82
2022/07/06 11:00:54;;;;;;;6.88;3.03;;;;;;;26.90;nan;100340.53;20245807;28;97463;-81
2022/07/06 11:10:55;;;;;;;4.00;2.80;;;;;;;27.07;nan;100322.03;20237143;28;100172;-81
2022/07/06 11:21:18;;;;;;;2.58;2.20;;;;;;;27.28;nan;100326.91;20225268;28;97817;-82
2022/07/06 11:31:18;;;;;;;3.63;2.55;;;;;;;27.38;nan;100327.63;20238995;28;99176;-84
2022/07/06 11:41:19;;;;;;;5.73;2.47;;;;;;;27.56;nan;100313.41;20245683;28;97697;-84
2022/07/06 11:51:20;;;;;;;;;;;;;;;27.78;nan;100314.59;20234103;28;99651;-83
2022/07/06 12:01:23;;;;;;;4.13;2.60;;;;;;;27.86;nan;100321.78;20228253;28;99060;-83
2022/07/06 12:11:26;;;;;;;5.20;2.60;;;;;;;28.07;nan;100310.66;20220328;28;97150;-82
2022/07/06 12:21:27;;;;;;;6.25;2.75;;;;;;;28.10;nan;100318.34;20238928;28;98129;-84
2022/07/06 12:31:43;;;;;;;2.83;2.60;;;;;;;28.14;nan;100311.66;20234246;28;97283;-83
2022/07/06 12:41:44;;;;;;;3.80;2.80;;;;;;;28.37;nan;100321.63;20250576;28;97854;-83
2022/07/06 12:51:57;;;;;;;3.00;2.70;;;;;;;28.54;nan;100320.59;20226272;28;99187;-83
2022/07/06 13:01:58;;;;;;;3.13;2.50;;;;;;;28.62;nan;100294.97;20240025;28;98083;-83
2022/07/06 13:11:58;;;;;;;6.97;2.40;;;;;;;28.80;nan;100318.75;20235016;28;98669;-84
2022/07/06 13:21:58;;;;;;;4.55;2.42;;;;;;;28.75;nan;100308.59;20238344;28;97842;-83
2022/07/06 13:31:59;;;;;;;3.85;2.00;;;;;;;28.79;nan;100298.44;20246260;28;97092;-83
2022/07/06 13:41:59;;;;;;;4.40;1.70;;;;;;;28.73;nan;100316.78;20248862;28;97031;-83
2022/07/06 13:52:03;;;;;;;4.32;2.20;;;;;;;28.73;nan;100311.44;20252930;28;97248;-83
2022/07/06 14:02:04;;;;;;;3.17;2.25;;;;;;;28.77;nan;100319.91;20251143;28;98028;-84
2022/07/06 14:12:04;;;;;;;2.13;1.92;;;;;;;28.79;nan;100323.25;20245803;28;100092;-82
2022/07/06 14:22:05;;;;;;;3.20;2.00;;;;;;;28.83;nan;100331.72;20259027;28;100209;-83
2022/07/06 14:32:05;;;;;;;1.92;1.75;;;;;;;28.99;nan;100334.34;20244037;28;97274;-83
2022/07/06 14:42:06;;;;;;;5.78;2.90;;;;;;;29.01;nan;100332.31;20246543;28;98823;-84
2022/07/06 14:52:08;;;;;;;2.45;2.25;;;;;;;29.01;nan;100323.50;20242902;28;97521;-82
2022/07/06 15:02:09;;;;;;;3.22;2.88;;;;;;;29.03;nan;100309.00;20236986;28;97834;-82
2022/07/06 15:12:10;;;;;;;6.43;4.70;;;;;;;29.13;nan;100323.97;20248200;28;97127;-81
2022/07/06 15:22:11;;;;;;;5.30;2.20;;;;;;;29.17;nan;100330.59;20234336;28;102436;-83
2022/07/06 15:32:12;;;;;;;5.03;1.17;;;;;;;29.22;nan;100317.56;20243346;28;98403;-84
2022/07/06 15:42:13;;;;;;;3.05;1.20;;;;;;;29.24;nan;100323.56;20243549;28;100757;-83
2022/07/06 15:52:15;;;;;;;2.20;1.00;;;;;;;29.32;nan;100334.22;20229744;28;98048;-83
2022/07/06 16:02:15;;;;;;;9.05;1.00;;;;;;;29.31;nan;100337.91;20225939;28;100477;-84
2022/07/06 16:12:15;;;;;;;2.47;1.10;;;;;;;29.18;nan;100356.25;20223926;28;100831;-83
2022/07/06 16:22:16;;;;;;;2.80;1.30;;;;;;;29.16;nan;100355.59;20209920;28;98008;-84
2022/07/06 16:32:17;;;;;;;2.10;1.75;;;;;;;28.94;nan;100355.34;20183984;28;98918;-85
2022/07/06 16:42:17;;;;;;;4.82;1.23;;;;;;;28.85;nan;100359.03;20213723;28;98509;-81
2022/07/06 16:52:18;;;;;;;1.30;1.20;;;;;;;28.65;nan;100356.72;20224525;28;98342;-81
2022/07/06 17:02:19;;;;;;;5.77;1.50;;;;;;;28.54;nan;100355.25;20220096;28;97197;-81
2022/07/06 17:12:20;;;;;;;3.25;1.50;;;;;;;28.28;nan;100353.59;20213947;28;97919;-77
2022/07/06 17:22:21;;;;;;;3.78;1.50;;;;;;;27.95;nan;100374.84;20214357;28;101310;-85
2022/07/06 17:32:23;;;;;;;15.67;9.60;;;;;;;27.74;nan;100393.91;20262087;28;97284;-86
2022/07/06 17:42:25;;;;;;;4.72;2.08;;;;;;;27.53;nan;100393.53;20236484;28;100041;-86
2022/07/06 17:52:25;;;;;;;;;;;;;;;27.39;nan;100402.91;20219749;28;98699;-87
2022/07/06 18:02:26;;;;;;;7.95;5.13;;;;;;;27.40;nan;100413.38;20231550;28;97804;-86
2022/07/06 18:12:26;;;;;;;4.45;1.60;;;;;;;27.04;nan;100423.31;20227335;28;100089;-88
2022/07/06 18:22:28;;;;;;;1.50;1.30;;;;;;;26.86;nan;100439.34;20217493;28;102473;-82
2022/07/06 18:32:28;;;;;;;;;;;;;;;26.72;nan;100430.91;20186289;28;98432;-78
2022/07/06 18:42:29;;;;;;;4.60;1.73;;;;;;;26.43;nan;100436.47;20187940;28;103168;-77
2022/07/06 18:52:30;;;;;;;2.90;1.43;;;;;;;26.32;nan;100438.38;20177851;28;98203;-78
2022/07/06 19:02:32;;;;;;;1.53;1.40;;;;;;;26.23;nan;100444.56;20179334;28;100421;-77
2022/07/06 19:12:32;;;;;;;3.40;3.10;;;;;;;26.49;nan;100447.31;20173857;28;99636;-77
2022/07/06 19:22:33;;;;;;;2.95;2.20;;;;;;;26.48;nan;100461.56;20191847;28;98374;-76
2022/07/06 19:32:34;;;;;;;2.38;1.55;;;;;;;26.81;nan;100455.75;20185186;28;97834;-76
2022/07/06 19:42:37;;;;;;;4.30;1.50;;;;;;;26.62;nan;100472.63;20216288;28;97675;-81
2022/07/06 19:52:38;;;;;;;2.83;1.65;;;;;;;26.33;nan;100479.00;20214381;28;98039;-76
2022/07/06 20:02:38;;;;;;;8.27;1.90;;;;;;;26.23;nan;100478.25;20194283;28;100852;-77
2022/07/06 20:12:39;;;;;;;2.08;1.40;;;;;;;26.32;nan;100483.50;20198120;28;98716;-75
2022/07/06 20:22:39;;;;;;;1.53;1.43;;;;;;;26.34;nan;100492.16;20197325;28;97037;-77
2022/07/06 20:32:40;;;;;;;3.15;1.40;;;;;;;26.34;nan;100504.56;20177393;28;98526;-75
2022/07/06 20:42:41;;;;;;;2.88;1.15;;;;;;;26.29;nan;100509.50;20168653;28;98256;-77
2022/07/06 20:52:41;;;;;;;1.43;1.30;;;;;;;26.23;nan;100505.63;20171180;28;97384;-75
2022/07/06 21:02:42;;;;;;;1.30;1.20;;;;;;;26.11;nan;100518.28;20207581;28;98123;-74
2022/07/06 21:12:42;;;;;;;1.42;1.30;;;;;;;26.04;nan;100523.28;20206157;28;100884;-75
2022/07/06 21:22:43;;;;;;;2.22;1.30;;;;;;;25.96;nan;100525.84;20216799;28;98265;-74
2022/07/06 21:32:43;;;;;;;1.60;1.27;;;;;;;25.97;nan;100532.00;20204596;28;97334;-74
2022/07/06 21:42:44;;;;;;;2.45;1.20;;;;;;;25.86;nan;100539.16;20199461;28;99542;-75
2022/07/06 21:52:45;;;;;;;1.25;1.13;;;;;;;25.75;nan;100534.03;20205418;28;102107;-75
2022/07/06 22:02:45;;;;;;;1.20;0.90;;;;;;;25.68;nan;100543.56;20214454;28;98130;-75
2022/07/06 22:12:46;;;;;;;1.20;1.10;;;;;;;25.67;nan;100547.19;20211949;28;97987;-74
2022/07/06 22:22:49;;;;;;;1.27;1.17;;;;;;;25.65;nan;100555.28;20212632;28;98018;-75
2022/07/06 22:32:49;;;;;;;1.63;1.45;;;;;;;25.63;nan;100553.78;20200315;28;98487;-78
2022/07/06 22:42:49;;;;;;;1.38;1.20;;;;;;;25.65;nan;100559.78;20209356;28;101219;-76
2022/07/06 22:52:50;;;;;;;1.60;1.50;;;;;;;25.65;nan;100562.44;20199445;28;97103;-76
2022/07/06 23:02:50;;;;;;;2.47;1.40;;;;;;;25.62;nan;100568.00;20194082;28;97473;-76
2022/07/06 23:12:51;;;;;;;1.98;1.30;;;;;;;25.57;nan;100574.59;20212029;28;100259;-76
2022/07/06 23:22:51;;;;;;;2.00;1.50;;;;;;;25.53;nan;100578.47;20200406;28;98483;-76
2022/07/06 23:32:52;;;;;;;1.73;1.42;;;;;;;25.49;nan;100584.25;20194129;28;100950;-76
2022/07/06 23:42:53;;;;;;;2.15;1.40;;;;;;;25.39;nan;100585.09;20205161;28;97821;-75
2022/07/06 23:52:53;;;;;;;1.90;1.60;;;;;;;25.38;nan;100578.09;20200746;28;101360;-75
